Time;durP1;ratioP1;P1;durP2;ratioP2;P2;SDS_P1;SDS_P2;PMS_P1;PMS_P2;Temp;Humidity;BMP_temperature;BMP_pressure;BME280_temperature;BME280_humidity;BME280_pressure;Samples;Min_cycle;Max_cycle;Signal;HPM_P1;HPM_P2
2023/08/24 00:01:17;;;;;;;4.80;3.40;;;21.10;99.90;;;;;;5091079;28;20249;-73
2023/08/24 00:04:08;;;;;;;7.40;3.60;;;21.10;99.90;;;;;;5078656;28;20239;-72
2023/08/24 00:06:57;;;;;;;6.45;3.40;;;21.10;99.90;;;;;;5100538;28;20294;-68
2023/08/24 00:09:46;;;;;;;4.90;3.10;;;21.00;99.90;;;;;;5086189;28;20234;-71
2023/08/24 00:12:35;;;;;;;6.28;3.45;;;20.90;99.90;;;;;;5096973;28;20216;-70
2023/08/24 00:15:24;;;;;;;6.30;3.30;;;20.90;99.90;;;;;;5101955;28;20303;-72
2023/08/24 00:18:13;;;;;;;5.72;3.08;;;20.90;99.90;;;;;;5080407;28;20222;-72
2023/08/24 00:21:04;;;;;;;5.93;3.22;;;20.90;99.90;;;;;;5064953;28;20325;-72
2023/08/24 00:23:53;;;;;;;4.53;3.20;;;20.90;99.90;;;;;;5080530;28;20765;-71
2023/08/24 00:26:42;;;;;;;5.68;3.10;;;20.80;99.90;;;;;;5094580;28;20222;-72
2023/08/24 00:29:32;;;;;;;4.22;2.90;;;20.90;99.90;;;;;;5079834;28;20226;-71
2023/08/24 00:32:22;;;;;;;5.18;3.17;;;20.80;99.90;;;;;;5099162;28;20386;-72
2023/08/24 00:35:11;;;;;;;6.22;3.20;;;20.80;99.90;;;;;;5085137;28;20242;-70
2023/08/24 00:38:02;;;;;;;5.40;3.55;;;20.80;99.90;;;;;;5077586;28;20360;-72
2023/08/24 00:40:52;;;;;;;4.57;3.45;;;20.80;99.90;;;;;;5079009;28;20234;-71
2023/08/24 00:43:42;;;;;;;8.43;3.55;;;20.80;99.90;;;;;;5079575;28;20231;-73
2023/08/24 00:46:31;;;;;;;5.88;3.53;;;20.80;99.90;;;;;;5083674;28;20235;-71
2023/08/24 00:49:22;;;;;;;4.70;3.10;;;20.70;99.90;;;;;;5096917;28;20218;-71
2023/08/24 00:52:11;;;;;;;6.63;3.40;;;20.70;99.90;;;;;;5080703;28;20276;-71
2023/08/24 00:55:02;;;;;;;4.97;3.05;;;20.80;99.90;;;;;;5078323;28;20227;-71
2023/08/24 00:57:52;;;;;;;5.95;3.30;;;20.70;99.90;;;;;;5096047;28;20372;-72
2023/08/24 01:00:41;;;;;;;6.72;3.20;;;20.70;99.90;;;;;;5098365;28;20212;-72
2023/08/24 01:03:30;;;;;;;4.47;3.22;;;20.60;99.90;;;;;;5067474;28;20224;-71
2023/08/24 01:06:19;;;;;;;4.88;3.50;;;20.60;99.90;;;;;;5071129;28;21019;-71
2023/08/24 01:09:08;;;;;;;4.63;3.20;;;20.70;99.90;;;;;;5095855;28;20313;-70
2023/08/24 01:12:06;;;;;;;7.30;3.33;;;20.60;99.90;;;;;;5093393;28;20222;-69
2023/08/24 01:15:04;;;;;;;4.85;3.22;;;20.70;99.90;;;;;;5074667;28;20219;-67
2023/08/24 01:17:55;;;;;;;5.80;3.10;;;20.60;99.90;;;;;;5048600;28;20227;-70
2023/08/24 01:20:45;;;;;;;6.32;3.10;;;20.60;99.90;;;;;;5078466;28;20231;-71
2023/08/24 01:23:43;;;;;;;3.88;3.03;;;20.70;99.90;;;;;;5074340;28;20547;-72
2023/08/24 01:26:35;;;;;;;2.83;2.60;;;20.70;99.90;;;;;;5078071;28;20219;-70
2023/08/24 01:29:24;;;;;;;4.10;3.22;;;20.70;99.90;;;;;;5084414;27;20319;-71
2023/08/24 01:32:16;;;;;;;7.47;3.00;;;20.60;99.90;;;;;;5085458;28;20244;-71
2023/08/24 01:35:07;;;;;;;5.78;3.25;;;20.60;99.90;;;;;;5097517;28;20657;-70
2023/08/24 01:37:55;;;;;;;4.47;3.25;;;20.60;99.90;;;;;;5075892;28;20241;-69
2023/08/24 01:40:52;;;;;;;6.88;3.20;;;20.60;99.90;;;;;;5080146;28;20231;-70
2023/08/24 01:43:47;;;;;;;4.85;2.90;;;20.60;99.90;;;;;;5082961;28;20593;-69
2023/08/24 01:46:38;;;;;;;6.28;3.20;;;20.60;99.90;;;;;;5098370;28;20222;-70
2023/08/24 01:49:28;;;;;;;7.28;3.38;;;20.60;99.90;;;;;;5085701;28;20874;-71
2023/08/24 01:52:18;;;;;;;5.32;3.08;;;20.50;99.90;;;;;;5085464;28;20222;-71
2023/08/24 01:55:07;;;;;;;5.15;3.30;;;20.50;99.90;;;;;;5091277;28;20221;-71
2023/08/24 01:57:57;;;;;;;5.20;3.10;;;20.50;99.90;;;;;;5079022;28;20230;-71
2023/08/24 02:00:47;;;;;;;4.88;3.00;;;20.30;99.90;;;;;;5078481;28;20223;-70
2023/08/24 02:03:38;;;;;;;4.93;3.25;;;20.30;99.90;;;;;;5078369;28;20305;-70
2023/08/24 02:06:29;;;;;;;5.85;3.50;;;20.40;99.90;;;;;;5094888;28;20344;-70
2023/08/24 02:09:17;;;;;;;3.90;3.30;;;20.40;99.90;;;;;;5075466;28;20657;-70
2023/08/24 02:12:06;;;;;;;4.53;2.80;;;20.40;99.90;;;;;;5078426;28;20225;-69
2023/08/24 02:14:55;;;;;;;5.80;3.42;;;20.30;99.90;;;;;;5073025;28;20219;-69
2023/08/24 02:17:45;;;;;;;7.07;3.20;;;20.30;99.90;;;;;;5073603;28;21132;-70
2023/08/24 02:20:36;;;;;;;4.18;3.10;;;20.40;99.90;;;;;;5074406;28;20223;-70
2023/08/24 02:23:26;;;;;;;3.72;2.85;;;20.30;99.90;;;;;;5085428;28;20812;-71
2023/08/24 02:26:15;;;;;;;3.50;2.85;;;20.30;99.90;;;;;;5089778;28;20223;-72
2023/08/24 02:29:04;;;;;;;7.50;3.20;;;20.20;99.90;;;;;;5068988;28;20223;-71
2023/08/24 02:31:53;;;;;;;4.18;3.40;;;20.30;99.90;;;;;;5077417;28;20692;-68
2023/08/24 02:34:43;;;;;;;5.07;2.95;;;20.30;99.90;;;;;;5069878;28;20259;-69
2023/08/24 02:37:32;;;;;;;5.22;2.90;;;20.20;99.90;;;;;;5086704;28;20277;-69
2023/08/24 02:40:22;;;;;;;4.75;3.00;;;20.20;99.90;;;;;;5087022;28;20218;-72
2023/08/24 02:43:12;;;;;;;4.70;2.92;;;20.20;99.90;;;;;;5078206;28;20247;-69
2023/08/24 02:46:03;;;;;;;3.70;2.95;;;20.20;99.90;;;;;;5079075;28;20218;-68
2023/08/24 02:48:53;;;;;;;5.00;3.15;;;20.10;99.90;;;;;;5078724;28;20310;-72
2023/08/24 02:51:43;;;;;;;6.35;3.15;;;20.10;99.90;;;;;;5070455;28;20235;-72
2023/08/24 02:54:32;;;;;;;4.85;3.22;;;20.10;99.90;;;;;;5076483;28;20242;-70
2023/08/24 02:57:22;;;;;;;4.50;2.95;;;20.10;99.90;;;;;;5063424;28;20239;-70
2023/08/24 03:00:13;;;;;;;7.35;3.10;;;20.10;99.90;;;;;;5079115;28;20234;-70
2023/08/24 03:03:02;;;;;;;4.50;3.05;;;20.10;99.90;;;;;;5088585;28;20257;-71
2023/08/24 03:05:56;;;;;;;6.53;3.17;;;20.00;99.90;;;;;;5078267;28;20231;-70
2023/08/24 03:08:46;;;;;;;4.78;3.17;;;20.00;99.90;;;;;;5062817;28;20228;-71
2023/08/24 03:11:35;;;;;;;7.57;3.75;;;20.10;99.90;;;;;;5075456;28;20861;-71
2023/08/24 03:14:24;;;;;;;8.18;3.90;;;19.90;99.90;;;;;;5081581;28;20246;-71
2023/08/24 03:17:13;;;;;;;7.45;3.42;;;19.90;99.90;;;;;;5083839;28;20224;-71
2023/08/24 03:20:02;;;;;;;7.30;3.55;;;20.00;99.90;;;;;;5083459;28;20894;-71
2023/08/24 03:22:51;;;;;;;7.13;3.45;;;20.00;99.90;;;;;;5074253;28;20352;-72
2023/08/24 03:25:43;;;;;;;6.15;3.35;;;20.10;99.90;;;;;;5072277;28;20238;-71
2023/08/24 03:28:32;;;;;;;7.20;3.53;;;20.10;99.90;;;;;;5086981;28;20219;-72
2023/08/24 03:31:21;;;;;;;6.15;3.40;;;20.10;99.90;;;;;;5085195;28;20310;-71
2023/08/24 03:34:11;;;;;;;6.70;3.22;;;20.00;99.90;;;;;;5082327;28;20245;-72
2023/08/24 03:37:00;;;;;;;6.95;3.45;;;20.00;99.90;;;;;;5075514;28;20226;-71
2023/08/24 03:39:48;;;;;;;6.38;3.63;;;20.10;99.90;;;;;;5085110;28;20785;-71
2023/08/24 03:42:40;;;;;;;7.32;3.60;;;20.10;99.90;;;;;;5083259;28;20317;-72
2023/08/24 03:45:29;;;;;;;5.07;3.50;;;20.10;99.90;;;;;;5084788;28;20649;-70
2023/08/24 03:48:19;;;;;;;7.95;3.40;;;20.10;99.90;;;;;;5075496;28;20337;-71
2023/08/24 03:51:08;;;;;;;6.15;3.30;;;20.10;99.90;;;;;;5082272;28;20235;-72
2023/08/24 03:53:58;;;;;;;5.32;3.70;;;20.00;99.90;;;;;;5073489;28;20219;-72
2023/08/24 03:56:47;;;;;;;5.25;2.97;;;20.00;99.90;;;;;;5060588;28;20259;-71
2023/08/24 03:59:38;;;;;;;5.78;3.30;;;19.90;99.90;;;;;;5078765;28;20212;-71
2023/08/24 04:02:29;;;;;;;7.05;3.80;;;19.90;99.90;;;;;;5074572;28;20313;-71
2023/08/24 04:05:18;;;;;;;8.10;3.70;;;20.00;99.90;;;;;;5075431;28;20719;-72
2023/08/24 04:08:09;;;;;;;6.55;3.30;;;20.10;99.90;;;;;;5076542;28;20239;-71
2023/08/24 04:10:58;;;;;;;6.88;3.33;;;20.10;99.90;;;;;;5073954;28;20233;-72
2023/08/24 04:13:47;;;;;;;7.57;3.88;;;20.00;99.90;;;;;;5095322;28;20311;-72
2023/08/24 04:16:37;;;;;;;6.40;3.88;;;20.00;99.90;;;;;;5094781;28;20713;-70
2023/08/24 04:19:29;;;;;;;5.85;3.65;;;20.10;99.90;;;;;;5074646;28;20231;-72
2023/08/24 04:22:18;;;;;;;7.85;3.40;;;20.10;99.90;;;;;;5070745;28;20676;-70
2023/08/24 04:25:07;;;;;;;7.82;3.92;;;20.00;99.90;;;;;;5073712;28;20220;-71
2023/08/24 04:27:57;;;;;;;7.22;3.50;;;20.20;99.90;;;;;;5079386;28;20547;-71
2023/08/24 04:30:51;;;;;;;5.20;3.30;;;20.20;99.90;;;;;;5080638;28;21299;-71
2023/08/24 04:33:41;;;;;;;7.25;3.83;;;20.30;99.90;;;;;;5072944;28;20254;-70
2023/08/24 04:36:30;;;;;;;8.20;3.60;;;20.30;99.90;;;;;;5082708;28;20361;-71
2023/08/24 04:39:19;;;;;;;7.85;3.90;;;20.40;99.90;;;;;;5077623;28;20890;-70
2023/08/24 04:42:08;;;;;;;5.55;3.53;;;20.40;99.90;;;;;;5082528;28;20808;-71
2023/08/24 04:44:57;;;;;;;7.45;3.83;;;20.50;99.90;;;;;;5090980;28;20219;-71
2023/08/24 04:47:48;;;;;;;9.88;3.72;;;20.60;99.90;;;;;;5091360;28;20224;-72
2023/08/24 04:50:39;;;;;;;6.28;3.33;;;20.60;99.90;;;;;;5079964;28;20717;-70
2023/08/24 04:53:29;;;;;;;6.55;3.53;;;20.60;99.90;;;;;;5075895;28;20215;-73
2023/08/24 04:56:19;;;;;;;7.43;3.47;;;20.80;99.90;;;;;;5071245;28;20882;-71
2023/08/24 04:59:07;;;;;;;5.75;3.88;;;20.80;99.90;;;;;;5079295;28;20214;-72
2023/08/24 05:01:56;;;;;;;6.43;3.15;;;20.80;99.90;;;;;;5080782;28;20263;-71
2023/08/24 05:04:45;;;;;;;9.10;3.80;;;20.90;99.90;;;;;;5084207;28;20247;-71
2023/08/24 05:07:35;;;;;;;8.98;3.63;;;21.00;99.90;;;;;;5095856;28;20571;-71
2023/08/24 05:10:24;;;;;;;6.95;3.45;;;21.10;99.90;;;;;;5089799;28;20219;-72
2023/08/24 05:13:13;;;;;;;7.60;3.50;;;21.10;99.90;;;;;;5083204;28;20296;-72
2023/08/24 05:16:04;;;;;;;5.97;3.63;;;21.30;99.90;;;;;;5091793;28;20777;-72
2023/08/24 05:18:52;;;;;;;7.78;3.80;;;21.30;99.90;;;;;;5073584;28;21013;-72
2023/08/24 05:21:41;;;;;;;5.82;3.20;;;21.30;99.90;;;;;;5068378;28;20326;-72
2023/08/24 05:24:34;;;;;;;8.65;3.45;;;21.40;99.90;;;;;;5082094;28;20954;-71
2023/08/24 05:27:24;;;;;;;7.22;3.63;;;21.40;99.90;;;;;;5100581;28;20295;-71
2023/08/24 05:30:15;;;;;;;7.85;3.47;;;21.50;99.90;;;;;;5084899;28;20219;-70
2023/08/24 05:33:05;;;;;;;9.63;3.30;;;21.80;99.90;;;;;;5078143;28;20215;-70
2023/08/24 05:35:54;;;;;;;7.68;3.25;;;23.10;45.70;;;;;;5099855;28;20356;-70
2023/08/24 05:38:46;;;;;;;5.50;3.30;;;24.40;2.60;;;;;;5094315;28;20233;-70
2023/08/24 05:41:39;;;;;;;7.82;3.67;;;24.70;1.00;;;;;;5096859;28;20250;-69
2023/08/24 05:44:28;;;;;;;7.57;4.03;;;24.50;1.00;;;;;;5099714;28;20230;-69
2023/08/24 05:47:17;;;;;;;10.95;3.33;;;23.80;1.00;;;;;;5080630;28;20709;-74
2023/08/24 05:50:07;;;;;;;6.13;3.50;;;23.30;13.00;;;;;;5070977;28;20916;-70
2023/08/24 05:52:56;;;;;;;10.82;3.58;;;23.10;49.10;;;;;;5076502;28;20311;-71
2023/08/24 05:55:45;;;;;;;9.50;3.40;;;22.90;29.30;;;;;;5097829;28;20207;-71
2023/08/24 05:58:35;;;;;;;7.40;3.38;;;22.70;55.00;;;;;;5076574;28;20286;-72
2023/08/24 06:01:24;;;;;;;5.30;3.45;;;22.70;75.10;;;;;;5077204;28;20226;-72
2023/08/24 06:04:13;;;;;;;5.82;3.50;;;22.60;66.20;;;;;;5097638;28;20222;-70
2023/08/24 06:07:04;;;;;;;7.55;3.47;;;22.60;94.30;;;;;;5083217;28;20234;-69
2023/08/24 06:09:53;;;;;;;8.40;4.20;;;22.60;76.50;;;;;;5101328;28;20313;-70
2023/08/24 06:12:42;;;;;;;8.13;3.78;;;22.70;99.90;;;;;;5077931;28;20286;-70
2023/08/24 06:15:33;;;;;;;8.23;3.45;;;22.80;70.00;;;;;;5081759;28;20234;-71
2023/08/24 06:18:22;;;;;;;7.13;3.47;;;22.80;83.10;;;;;;5081559;28;20263;-72
2023/08/24 06:21:11;;;;;;;10.13;3.88;;;22.90;62.60;;;;;;5081934;28;20218;-70
2023/08/24 06:24:00;;;;;;;11.15;3.50;;;22.90;46.70;;;;;;5085294;28;20224;-71
2023/08/24 06:26:50;;;;;;;10.13;5.22;;;22.90;41.40;;;;;;5092724;28;20234;-70
2023/08/24 06:29:38;;;;;;;11.20;3.90;;;22.90;60.80;;;;;;5090609;28;20617;-70
2023/08/24 06:32:29;;;;;;;8.18;3.55;;;23.00;82.50;;;;;;5080758;28;20305;-71
2023/08/24 06:35:18;;;;;;;11.05;3.88;;;23.10;49.30;;;;;;5057565;28;20220;-71
2023/08/24 06:38:07;;;;;;;9.43;3.83;;;23.10;52.50;;;;;;5047551;28;20842;-73
2023/08/24 06:40:56;;;;;;;6.75;3.25;;;23.20;77.10;;;;;;5054636;28;20266;-75
2023/08/24 06:43:45;;;;;;;6.28;3.30;;;23.20;48.40;;;;;;5059969;28;20227;-79
2023/08/24 06:46:34;;;;;;;8.65;3.53;;;23.30;28.60;;;;;;5056174;28;20588;-75
2023/08/24 06:49:25;;;;;;;10.77;3.58;;;23.40;37.00;;;;;;5059507;28;20223;-77
2023/08/24 06:52:14;;;;;;;12.63;3.83;;;23.50;32.60;;;;;;5055991;28;20244;-76
2023/08/24 06:55:05;;;;;;;6.28;3.35;;;23.60;28.80;;;;;;5061986;28;20236;-77
2023/08/24 06:57:55;;;;;;;7.40;3.10;;;23.70;26.20;;;;;;5062028;28;20227;-77
2023/08/24 07:00:44;;;;;;;12.20;3.42;;;23.80;32.80;;;;;;5061257;28;20307;-75
2023/08/24 07:03:33;;;;;;;6.35;3.13;;;23.90;46.20;;;;;;5057399;28;20235;-73
2023/08/24 07:06:24;;;;;;;10.85;3.13;;;24.10;22.10;;;;;;5051716;28;20318;-72
2023/08/24 07:09:15;;;;;;;10.43;3.28;;;24.20;20.70;;;;;;5045753;28;20227;-73
2023/08/24 07:12:06;;;;;;;8.63;3.38;;;24.30;17.40;;;;;;5060754;28;21060;-73
2023/08/24 07:14:55;;;;;;;4.65;3.03;;;24.30;18.20;;;;;;5057383;28;20274;-73
2023/08/24 07:17:45;;;;;;;11.25;3.30;;;24.50;17.90;;;;;;5063507;28;20227;-74
2023/08/24 07:20:34;;;;;;;9.00;3.30;;;24.60;42.70;;;;;;5051348;28;20225;-75
2023/08/24 07:23:24;;;;;;;12.70;3.30;;;24.60;26.90;;;;;;5059049;28;20232;-76
2023/08/24 07:26:14;;;;;;;7.47;3.05;;;24.70;10.00;;;;;;5058681;28;20306;-73
2023/08/24 07:29:03;;;;;;;8.65;3.17;;;24.70;25.90;;;;;;5038888;28;20590;-72
2023/08/24 07:31:52;;;;;;;8.95;3.90;;;24.80;19.40;;;;;;5051678;28;20405;-72
2023/08/24 07:34:41;;;;;;;8.73;3.25;;;25.00;10.10;;;;;;5073661;28;20230;-72
2023/08/24 07:37:30;;;;;;;7.50;2.90;;;25.10;21.80;;;;;;5074226;28;20223;-71
2023/08/24 07:40:20;;;;;;;7.88;2.90;;;25.20;11.70;;;;;;5078025;28;20227;-71
2023/08/24 07:43:10;;;;;;;6.82;3.15;;;25.30;7.10;;;;;;5076998;28;20269;-71
2023/08/24 07:45:59;;;;;;;6.88;3.10;;;25.40;1.00;;;;;;5060330;28;20224;-72
2023/08/24 07:48:48;;;;;;;9.38;4.95;;;25.60;6.60;;;;;;5079220;28;20740;-72
2023/08/24 07:51:37;;;;;;;5.90;3.42;;;25.90;11.90;;;;;;5073586;28;20224;-69
2023/08/24 07:54:27;;;;;;;4.57;2.85;;;26.00;1.00;;;;;;5076773;28;20227;-73
2023/08/24 07:57:18;;;;;;;8.77;2.80;;;26.10;1.00;;;;;;5073741;28;20227;-71
2023/08/24 08:00:09;;;;;;;5.68;3.10;;;26.40;3.10;;;;;;5073382;28;20265;-71
2023/08/24 08:03:01;;;;;;;6.35;3.40;;;26.60;1.00;;;;;;5073770;28;20230;-71
2023/08/24 08:05:51;;;;;;;8.07;2.88;;;26.70;1.00;;;;;;5075593;28;20711;-70
2023/08/24 08:08:40;;;;;;;4.47;2.70;;;26.70;1.00;;;;;;5076181;28;20224;-72
2023/08/24 08:11:29;;;;;;;7.53;2.80;;;26.70;1.00;;;;;;5063980;28;20235;-71
2023/08/24 08:14:20;;;;;;;7.25;2.75;;;27.20;1.00;;;;;;5068550;28;20223;-71
2023/08/24 08:17:09;;;;;;;4.90;3.15;;;27.70;1.00;;;;;;5079061;28;20721;-72
2023/08/24 08:19:58;;;;;;;5.43;2.53;;;27.90;1.00;;;;;;5074517;28;20246;-71
2023/08/24 08:22:47;;;;;;;5.25;3.00;;;28.30;1.00;;;;;;5070452;28;20789;-71
2023/08/24 08:25:36;;;;;;;24.67;3.78;;;28.20;1.00;;;;;;5074334;28;20235;-74
2023/08/24 08:28:26;;;;;;;5.15;2.55;;;28.50;1.00;;;;;;5072532;28;20828;-74
2023/08/24 08:31:16;;;;;;;5.88;2.55;;;28.70;1.00;;;;;;5072799;28;20266;-75
2023/08/24 08:34:06;;;;;;;4.50;2.88;;;29.00;1.00;;;;;;5085518;28;20230;-73
2023/08/24 08:36:55;;;;;;;7.43;2.70;;;29.30;1.00;;;;;;5093179;28;20598;-73
2023/08/24 08:39:44;;;;;;;6.53;2.92;;;29.70;1.00;;;;;;5076022;28;20225;-73
2023/08/24 08:42:34;;;;;;;6.32;2.88;;;29.30;1.00;;;;;;5082096;28;20344;-73
2023/08/24 08:45:26;;;;;;;5.63;2.95;;;29.30;1.00;;;;;;5080592;28;20247;-74
2023/08/24 08:48:17;;;;;;;8.00;2.88;;;28.70;1.00;;;;;;5079496;27;21446;-73
2023/08/24 08:51:07;;;;;;;4.63;2.95;;;28.70;1.00;;;;;;5092574;28;20295;-73
2023/08/24 08:53:55;;;;;;;4.45;2.63;;;29.30;1.00;;;;;;5085431;28;20285;-71
2023/08/24 08:56:45;;;;;;;8.77;2.85;;;29.90;1.00;;;;;;5102389;28;20218;-73
2023/08/24 08:59:35;;;;;;;4.82;2.30;;;30.30;1.00;;;;;;5094249;28;20225;-74
2023/08/24 09:02:25;;;;;;;8.82;3.42;;;30.50;1.00;;;;;;5095381;28;20643;-75
2023/08/24 09:05:16;;;;;;;6.80;3.45;;;30.30;1.00;;;;;;5090520;28;20218;-72
2023/08/24 09:08:06;;;;;;;7.07;3.28;;;30.10;1.00;;;;;;5082097;28;20236;-72
2023/08/24 09:10:55;;;;;;;5.80;2.90;;;29.00;1.00;;;;;;5073202;28;20719;-72
2023/08/24 09:13:44;;;;;;;7.28;2.85;;;28.50;1.00;;;;;;5080351;28;20264;-72
2023/08/24 09:16:34;;;;;;;20.10;4.20;;;28.30;1.00;;;;;;5078638;28;20306;-71
2023/08/24 09:19:29;;;;;;;5.43;3.13;;;28.20;1.00;;;;;;5080731;28;20233;-73
2023/08/24 09:22:20;;;;;;;8.45;2.90;;;27.90;1.00;;;;;;5075011;28;20223;-72
2023/08/24 09:25:11;;;;;;;6.97;2.83;;;28.00;1.00;;;;;;5090654;28;20392;-71
2023/08/24 09:28:01;;;;;;;6.53;2.92;;;28.00;1.00;;;;;;5090559;28;20226;-70
2023/08/24 09:30:54;;;;;;;3.58;2.50;;;27.80;1.00;;;;;;5095938;28;20233;-72
2023/08/24 09:33:46;;;;;;;9.32;3.30;;;27.70;1.00;;;;;;5081552;28;20219;-70
2023/08/24 09:36:37;;;;;;;6.18;3.05;;;28.50;1.00;;;;;;5096381;28;20210;-71
2023/08/24 09:39:27;;;;;;;9.68;3.03;;;30.10;1.00;;;;;;5091156;28;20384;-71
2023/08/24 09:42:26;;;;;;;3.95;2.63;;;30.70;1.00;;;;;;5094062;28;20367;-70
2023/08/24 09:45:17;;;;;;;7.13;3.10;;;31.40;1.00;;;;;;5098455;28;20371;-71
2023/08/24 09:48:08;;;;;;;5.65;2.67;;;30.80;1.00;;;;;;5095347;28;20225;-74
2023/08/24 09:50:58;;;;;;;5.45;2.70;;;30.20;1.00;;;;;;5090446;28;20219;-72
2023/08/24 09:53:47;;;;;;;4.80;2.80;;;31.10;1.00;;;;;;5096769;28;20230;-74
2023/08/24 09:56:39;;;;;;;5.05;3.40;;;32.40;1.00;;;;;;5077266;28;20222;-72
2023/08/24 09:59:32;;;;;;;3.58;2.60;;;34.30;1.00;;;;;;5093085;28;20237;-71
2023/08/24 10:02:24;;;;;;;8.20;3.47;;;34.80;1.00;;;;;;5064063;28;20245;-74
2023/08/24 10:05:20;;;;;;;5.28;2.70;;;34.10;1.00;;;;;;5095490;28;20236;-74
2023/08/24 10:08:30;;;;;;;5.38;3.13;;;34.20;1.00;;;;;;5095891;28;20230;-73
2023/08/24 10:11:27;;;;;;;5.80;2.97;;;33.10;1.00;;;;;;5093368;28;20862;-74
2023/08/24 10:14:25;;;;;;;6.78;3.50;;;33.80;1.00;;;;;;5096968;28;20229;-74
2023/08/24 10:17:15;;;;;;;7.45;3.65;;;32.80;1.00;;;;;;5093667;28;21084;-73
2023/08/24 10:20:08;;;;;;;8.93;3.20;;;32.10;1.00;;;;;;5080058;28;20331;-72
2023/08/24 10:23:00;;;;;;;6.88;3.45;;;31.40;1.00;;;;;;5075592;28;20226;-72
2023/08/24 10:25:54;;;;;;;8.75;3.25;;;30.80;1.00;;;;;;5072942;28;20238;-71
2023/08/24 10:28:45;;;;;;;5.20;3.00;;;30.30;1.00;;;;;;5070871;28;20222;-71
2023/08/24 10:31:37;;;;;;;7.05;2.60;;;30.10;1.00;;;;;;5084349;28;20233;-72
2023/08/24 10:34:27;;;;;;;4.78;2.60;;;30.70;1.00;;;;;;5096454;28;20229;-73
2023/08/24 10:37:16;;;;;;;4.47;2.70;;;31.00;1.00;;;;;;5078197;28;20591;-70
2023/08/24 10:40:07;;;;;;;5.60;2.60;;;31.30;1.00;;;;;;5075918;28;20223;-71
2023/08/24 10:42:56;;;;;;;4.40;2.40;;;31.70;1.00;;;;;;5090672;27;20230;-72
2023/08/24 10:45:58;;;;;;;3.92;2.50;;;31.70;1.00;;;;;;5087608;28;20223;-70
2023/08/24 10:49:10;;;;;;;5.32;2.55;;;33.10;1.00;;;;;;5095953;28;20219;-72
2023/08/24 10:52:16;;;;;;;3.58;2.70;;;33.60;1.00;;;;;;5077168;28;20226;-71
2023/08/24 10:55:23;;;;;;;7.18;2.67;;;33.80;1.00;;;;;;5068386;28;20223;-74
2023/08/24 10:58:17;;;;;;;4.88;2.60;;;35.60;1.00;;;;;;5094430;28;20662;-74
2023/08/24 11:01:06;;;;;;;2.90;2.53;;;36.40;1.00;;;;;;5089657;28;20274;-75
2023/08/24 11:03:56;;;;;;;4.65;2.40;;;37.20;1.00;;;;;;5087724;28;20222;-75
2023/08/24 11:06:55;;;;;;;5.28;2.22;;;36.40;1.00;;;;;;5097563;28;20418;-75
2023/08/24 11:09:47;;;;;;;6.70;3.03;;;36.20;1.00;;;;;;5083093;28;20889;-71
2023/08/24 11:13:12;;;;;;;4.28;2.80;;;35.80;1.00;;;;;;5074679;28;20223;-71
2023/08/24 11:16:06;;;;;;;4.10;2.58;;;34.10;1.00;;;;;;5078111;28;20232;-72
2023/08/24 11:18:55;;;;;;;3.25;2.40;;;34.20;1.00;;;;;;5084731;28;20310;-72
2023/08/24 11:21:46;;;;;;;4.50;2.50;;;35.50;1.00;;;;;;5079679;28;20233;-71
2023/08/24 11:24:36;;;;;;;4.20;2.70;;;35.20;1.00;;;;;;5067564;28;20226;-74
2023/08/24 11:27:27;;;;;;;3.80;2.58;;;34.10;1.00;;;;;;5091918;28;20234;-71
2023/08/24 11:30:18;;;;;;;5.32;2.78;;;33.60;1.00;;;;;;5084885;28;20229;-68
2023/08/24 11:33:08;;;;;;;2.65;2.40;;;32.20;1.00;;;;;;5096356;28;20234;-71
2023/08/24 11:35:57;;;;;;;5.43;2.42;;;35.50;1.00;;;;;;5085472;28;20218;-73
2023/08/24 11:38:47;;;;;;;3.42;2.55;;;37.80;1.00;;;;;;5102169;28;20582;-74
2023/08/24 11:41:37;;;;;;;3.50;2.60;;;40.20;1.00;;;;;;5104841;28;20232;-74
2023/08/24 11:44:29;;;;;;;3.45;2.35;;;41.00;1.00;;;;;;5083078;28;20231;-75
2023/08/24 11:47:23;;;;;;;3.85;2.63;;;40.80;1.00;;;;;;5084669;28;20221;-73
2023/08/24 11:50:12;;;;;;;6.43;2.50;;;41.40;1.00;;;;;;5092348;28;20223;-75
2023/08/24 11:53:02;;;;;;;8.10;2.70;;;39.90;1.00;;;;;;5073234;28;20310;-75
2023/08/24 11:55:53;;;;;;;5.60;2.38;;;38.20;1.00;;;;;;5075545;28;20269;-76
2023/08/24 11:58:54;;;;;;;6.55;2.75;;;37.60;1.00;;;;;;5062079;28;20257;-73
2023/08/24 12:01:44;;;;;;;7.63;2.80;;;35.80;1.00;;;;;;5084197;28;20222;-74
2023/08/24 12:04:39;;;;;;;5.68;2.67;;;35.40;1.00;;;;;;5079252;28;20218;-74
2023/08/24 12:07:29;;;;;;;7.85;2.75;;;36.40;1.00;;;;;;5095743;28;20317;-73
2023/08/24 12:10:21;;;;;;;3.50;2.33;;;34.50;1.00;;;;;;5091245;28;20273;-73
2023/08/24 12:13:10;;;;;;;6.45;2.55;;;33.70;1.00;;;;;;5082100;28;20230;-73
2023/08/24 12:16:04;;;;;;;5.97;2.42;;;33.10;1.00;;;;;;5082538;28;20221;-74
2023/08/24 12:18:55;;;;;;;4.68;2.80;;;32.20;1.00;;;;;;5067059;28;20234;-72
2023/08/24 12:21:45;;;;;;;4.60;2.50;;;31.50;1.00;;;;;;5077503;28;20222;-73
2023/08/24 12:24:35;;;;;;;5.30;2.65;;;30.90;1.00;;;;;;5079938;28;20661;-73
2023/08/24 12:27:27;;;;;;;5.53;2.78;;;30.60;1.00;;;;;;5094846;28;20972;-73
2023/08/24 12:30:16;;;;;;;3.80;2.30;;;30.30;1.00;;;;;;5079988;28;20305;-72
2023/08/24 12:33:06;;;;;;;4.47;2.63;;;30.00;1.00;;;;;;5083143;28;20717;-73
2023/08/24 12:35:56;;;;;;;4.40;2.55;;;29.60;1.00;;;;;;5083656;28;20218;-73
2023/08/24 12:38:45;;;;;;;3.45;2.20;;;29.50;1.00;;;;;;5076968;28;20305;-73
2023/08/24 12:41:35;;;;;;;4.28;2.28;;;29.50;1.00;;;;;;5081628;28;20249;-73
2023/08/24 12:44:24;;;;;;;14.45;3.22;;;29.60;1.00;;;;;;5093097;28;20226;-73
2023/08/24 12:47:13;;;;;;;4.63;2.50;;;29.50;1.00;;;;;;5085856;28;20238;-74
2023/08/24 12:50:04;;;;;;;5.72;2.60;;;29.80;1.00;;;;;;5087467;28;20276;-73
2023/08/24 12:52:56;;;;;;;4.97;2.55;;;29.80;1.00;;;;;;5070739;28;20988;-74
2023/08/24 12:55:45;;;;;;;5.60;2.58;;;30.00;1.00;;;;;;5081023;28;20263;-74
2023/08/24 12:58:35;;;;;;;4.13;2.75;;;29.80;1.00;;;;;;5097942;27;20223;-74
2023/08/24 13:01:23;;;;;;;5.30;2.83;;;29.70;1.00;;;;;;5061789;28;20617;-74
2023/08/24 13:04:13;;;;;;;7.00;3.20;;;29.80;1.00;;;;;;5060610;28;20231;-73
2023/08/24 13:07:04;;;;;;;10.30;3.30;;;29.80;1.00;;;;;;5085057;28;20223;-74
2023/08/24 13:09:53;;;;;;;4.97;3.15;;;29.80;1.00;;;;;;5077097;28;20247;-73
2023/08/24 13:12:42;;;;;;;5.05;3.40;;;29.70;1.00;;;;;;5082660;28;20649;-74
2023/08/24 13:15:31;;;;;;;5.15;3.30;;;29.70;1.00;;;;;;5093716;28;20218;-73
2023/08/24 13:18:20;;;;;;;5.70;3.10;;;29.60;1.00;;;;;;5076527;28;20218;-73
2023/08/24 13:21:09;;;;;;;8.15;3.30;;;29.30;1.00;;;;;;5091271;28;20880;-73
2023/08/24 13:24:00;;;;;;;4.50;3.40;;;29.20;1.00;;;;;;5072601;28;20231;-74
2023/08/24 13:26:49;;;;;;;5.40;2.90;;;28.90;1.00;;;;;;5080934;28;20219;-74
2023/08/24 13:29:38;;;;;;;5.70;3.50;;;28.70;1.00;;;;;;5070562;28;20238;-72
2023/08/24 13:32:27;;;;;;;6.22;3.50;;;28.60;1.00;;;;;;5070406;28;20227;-71
2023/08/24 13:35:17;;;;;;;8.93;4.10;;;28.60;1.00;;;;;;5078781;28;20219;-73
2023/08/24 13:38:06;;;;;;;9.27;5.20;;;28.50;1.00;;;;;;5086680;28;20235;-72
2023/08/24 13:40:56;;;;;;;9.77;5.20;;;28.30;1.00;;;;;;5094802;28;20398;-73
2023/08/24 13:43:45;;;;;;;10.20;5.13;;;28.20;1.00;;;;;;5080152;28;20217;-72
2023/08/24 13:46:34;;;;;;;7.93;5.00;;;28.10;1.00;;;;;;5074767;28;20239;-70
2023/08/24 13:49:23;;;;;;;4.28;3.60;;;28.00;1.00;;;;;;5094178;28;20233;-73
2023/08/24 13:52:28;;;;;;;6.13;3.53;;;28.00;1.00;;;;;;5092449;28;20234;-72
2023/08/24 13:55:17;;;;;;;7.93;4.03;;;27.90;1.00;;;;;;5080811;28;20761;-73
2023/08/24 13:58:07;;;;;;;6.60;4.13;;;27.80;1.00;;;;;;5094805;28;20325;-74
2023/08/24 14:00:56;;;;;;;6.63;4.28;;;27.70;1.00;;;;;;5094859;28;20256;-74
2023/08/24 14:03:46;;;;;;;14.20;5.93;;;27.60;1.00;;;;;;5077577;28;20825;-73
2023/08/24 14:06:36;;;;;;;8.63;6.10;;;27.60;1.00;;;;;;5093301;28;20298;-73
2023/08/24 14:09:27;;;;;;;6.80;4.95;;;27.60;1.00;;;;;;5082969;28;20679;-73
2023/08/24 14:12:16;;;;;;;7.22;3.75;;;27.50;1.00;;;;;;5076911;28;20304;-72
2023/08/24 14:15:07;;;;;;;4.55;3.55;;;27.50;1.00;;;;;;5075602;28;20222;-72
2023/08/24 14:17:56;;;;;;;4.35;2.88;;;27.50;1.00;;;;;;5095103;28;20210;-72
2023/08/24 14:20:46;;;;;;;5.15;3.05;;;27.40;1.00;;;;;;5073860;28;20905;-71
2023/08/24 14:23:35;;;;;;;4.63;3.28;;;27.30;1.00;;;;;;5074019;28;20223;-73
2023/08/24 14:26:24;;;;;;;6.00;3.58;;;27.40;1.00;;;;;;5079096;28;20226;-72
2023/08/24 14:29:14;;;;;;;6.50;3.17;;;27.30;1.00;;;;;;5068292;28;20376;-73
2023/08/24 14:32:04;;;;;;;6.53;3.22;;;27.30;1.00;;;;;;5072423;28;20222;-73
2023/08/24 14:34:53;;;;;;;4.50;3.30;;;27.30;1.00;;;;;;5071335;28;20231;-71
2023/08/24 14:37:42;;;;;;;3.95;3.40;;;27.20;1.00;;;;;;5071522;28;20361;-72
2023/08/24 14:40:31;;;;;;;9.73;3.13;;;27.30;1.00;;;;;;5066413;28;20231;-73
2023/08/24 14:43:20;;;;;;;4.13;3.33;;;27.30;1.00;;;;;;5065369;28;20241;-72
2023/08/24 14:46:10;;;;;;;5.85;3.33;;;27.20;1.00;;;;;;5081964;28;20337;-72
2023/08/24 14:49:01;;;;;;;3.88;3.20;;;27.20;1.00;;;;;;5076965;28;20214;-74
2023/08/24 14:51:50;;;;;;;4.95;3.22;;;27.20;1.00;;;;;;5088624;28;20847;-73